createdAt,value
2018-08-16T00:00:37.137Z,0
2018-08-16T00:01:37.713Z,0
2018-08-16T00:02:38.286Z,0
2018-08-16T00:03:38.861Z,0
2018-08-16T00:04:39.435Z,0
2018-08-16T00:05:40.008Z,0
2018-08-16T00:06:40.594Z,0
2018-08-16T00:07:41.169Z,0
2018-08-16T00:08:41.760Z,0
2018-08-16T00:09:42.319Z,0
2018-08-16T00:10:42.894Z,0
2018-08-16T00:11:43.471Z,0
2018-08-16T00:12:44.047Z,0
2018-08-16T00:13:44.621Z,0
2018-08-16T00:14:45.196Z,0
2018-08-16T00:15:45.772Z,0
2018-08-16T00:16:46.347Z,0
2018-08-16T00:17:46.932Z,0
2018-08-16T00:18:47.512Z,0
2018-08-16T00:19:48.094Z,0
2018-08-16T00:20:48.669Z,0
2018-08-16T00:21:49.243Z,0
2018-08-16T00:22:49.818Z,0
2018-08-16T00:23:50.396Z,0
2018-08-16T00:24:50.972Z,0
2018-08-16T00:25:51.549Z,0
2018-08-16T00:26:52.123Z,0
2018-08-16T00:27:52.697Z,0
2018-08-16T00:28:53.273Z,0
2018-08-16T00:29:53.845Z,0
2018-08-16T00:30:54.419Z,0
2018-08-16T00:31:54.994Z,0
2018-08-16T00:32:55.568Z,0
2018-08-16T00:33:56.145Z,0
2018-08-16T00:34:56.722Z,0
2018-08-16T00:35:57.299Z,0
2018-08-16T00:36:57.885Z,0
2018-08-16T00:37:58.461Z,0
2018-08-16T00:38:59.035Z,0
2018-08-16T00:39:59.612Z,0
2018-08-16T00:41:00.187Z,0
2018-08-16T00:42:00.762Z,0
2018-08-16T00:43:01.336Z,0
2018-08-16T00:44:01.929Z,0
2018-08-16T00:45:02.511Z,0
2018-08-16T00:46:03.095Z,0
2018-08-16T00:47:03.682Z,0
2018-08-16T00:48:04.256Z,0
2018-08-16T00:49:04.844Z,0
2018-08-16T00:50:05.420Z,0
2018-08-16T00:51:05.995Z,0
2018-08-16T00:52:06.574Z,0
2018-08-16T00:53:07.146Z,0
2018-08-16T00:54:07.722Z,0
2018-08-16T00:55:08.298Z,0
2018-08-16T00:56:08.882Z,0
2018-08-16T00:57:09.467Z,0
2018-08-16T00:58:10.044Z,0
2018-08-16T00:59:10.619Z,0
2018-08-16T01:00:11.196Z,0
2018-08-16T01:01:11.770Z,0
2018-08-16T01:02:12.353Z,0
2018-08-16T01:03:12.933Z,0
2018-08-16T01:04:13.504Z,0
2018-08-16T01:05:14.081Z,0
2018-08-16T01:06:14.667Z,0
2018-08-16T01:07:15.243Z,0
2018-08-16T01:08:15.821Z,0
2018-08-16T01:09:16.394Z,0
2018-08-16T01:10:16.970Z,0
2018-08-16T01:11:17.548Z,0
2018-08-16T01:12:18.121Z,0
2018-08-16T01:13:18.696Z,0
2018-08-16T01:14:19.283Z,0
2018-08-16T01:15:19.857Z,0
2018-08-16T01:16:20.431Z,0
2018-08-16T01:17:21.005Z,0
2018-08-16T01:18:21.591Z,0
2018-08-16T01:19:22.167Z,0
2018-08-16T01:20:22.754Z,0
2018-08-16T01:21:23.314Z,0
2018-08-16T01:22:23.888Z,0
2018-08-16T01:23:24.462Z,0
2018-08-16T01:24:25.035Z,0
2018-08-16T01:25:25.608Z,0
2018-08-16T01:26:26.183Z,0
2018-08-16T01:27:26.756Z,0
2018-08-16T01:28:27.344Z,0
2018-08-16T01:29:27.919Z,0
2018-08-16T01:30:28.493Z,0
2018-08-16T01:31:29.068Z,0
2018-08-16T01:32:29.640Z,0
2018-08-16T01:33:30.226Z,0
2018-08-16T01:34:30.801Z,0
2018-08-16T01:35:31.381Z,0
2018-08-16T01:36:31.949Z,0
2018-08-16T01:37:32.524Z,0
2018-08-16T01:38:33.098Z,0
2018-08-16T01:39:33.675Z,0
2018-08-16T01:40:34.252Z,0
2018-08-16T01:41:34.826Z,0
2018-08-16T01:42:35.400Z,0
2018-08-16T01:43:35.974Z,0
2018-08-16T01:44:36.546Z,0
2018-08-16T01:45:37.120Z,0
2018-08-16T01:46:37.696Z,0
2018-08-16T01:47:38.269Z,0
2018-08-16T01:48:38.880Z,0
2018-08-16T01:49:39.417Z,0
2018-08-16T01:50:39.994Z,0
2018-08-16T01:51:40.568Z,0
2018-08-16T01:52:41.146Z,0
2018-08-16T01:53:41.719Z,0
2018-08-16T01:54:42.297Z,0
2018-08-16T01:55:42.865Z,0
2018-08-16T01:56:43.439Z,0
2018-08-16T01:57:44.012Z,0
2018-08-16T01:58:44.586Z,0
2018-08-16T01:59:45.159Z,0
2018-08-16T02:00:45.734Z,0
2018-08-16T02:01:46.309Z,0
2018-08-16T02:02:46.894Z,0
2018-08-16T02:03:47.467Z,0
2018-08-16T02:04:48.041Z,0
2018-08-16T02:05:48.613Z,0
2018-08-16T02:06:49.186Z,0
2018-08-16T02:07:49.760Z,0
2018-08-16T02:08:50.343Z,0
2018-08-16T02:09:50.927Z,0
2018-08-16T02:10:51.502Z,0
2018-08-16T02:11:52.084Z,0
2018-08-16T02:12:52.657Z,0
2018-08-16T02:13:53.231Z,0
2018-08-16T02:14:53.815Z,0
2018-08-16T02:15:54.388Z,0
2018-08-16T02:16:54.965Z,0
2018-08-16T02:17:55.549Z,0
2018-08-16T02:18:56.124Z,0
2018-08-16T02:19:56.698Z,0
2018-08-16T02:20:57.282Z,0
2018-08-16T02:21:57.854Z,0
2018-08-16T02:22:58.430Z,0
2018-08-16T02:23:59.005Z,0
2018-08-16T02:24:59.579Z,0
2018-08-16T02:26:00.152Z,0
2018-08-16T02:27:00.727Z,0
2018-08-16T02:28:01.300Z,0
2018-08-16T02:29:01.878Z,0
2018-08-16T02:30:02.447Z,0
2018-08-16T02:31:03.030Z,0
2018-08-16T02:32:03.605Z,0
2018-08-16T02:33:04.180Z,0
2018-08-16T02:34:04.754Z,0
2018-08-16T02:35:05.325Z,0
2018-08-16T02:36:05.908Z,0
2018-08-16T02:37:06.473Z,0
2018-08-16T02:38:07.058Z,0
2018-08-16T02:39:07.639Z,0
2018-08-16T02:40:08.211Z,0
2018-08-16T02:41:08.784Z,0
2018-08-16T02:42:09.357Z,0
2018-08-16T02:43:09.931Z,0
2018-08-16T02:44:10.507Z,0
2018-08-16T02:45:11.080Z,0
2018-08-16T02:46:11.655Z,0
2018-08-16T02:47:12.231Z,0
2018-08-16T02:48:12.802Z,0
2018-08-16T02:49:13.374Z,0
2018-08-16T02:50:13.948Z,0
2018-08-16T02:51:14.521Z,0
2018-08-16T02:52:15.094Z,0
2018-08-16T02:53:15.667Z,0
2018-08-16T02:54:16.242Z,0
2018-08-16T02:55:16.813Z,0
2018-08-16T02:56:17.386Z,0
2018-08-16T02:57:17.957Z,0
2018-08-16T02:58:18.545Z,0
2018-08-16T02:59:19.125Z,0
2018-08-16T03:00:19.703Z,0
2018-08-16T03:01:20.274Z,0
2018-08-16T03:02:20.889Z,0
2018-08-16T03:03:21.421Z,0
2018-08-16T03:04:21.996Z,0
2018-08-16T03:05:22.570Z,0
2018-08-16T03:06:23.143Z,0
2018-08-16T03:07:23.716Z,0
2018-08-16T03:08:24.289Z,0
2018-08-16T03:09:24.863Z,0
2018-08-16T03:10:25.455Z,0
2018-08-16T03:11:26.021Z,0
2018-08-16T03:12:26.596Z,0
2018-08-16T03:13:27.170Z,0
2018-08-16T03:14:27.755Z,0
2018-08-16T03:15:28.325Z,0
2018-08-16T03:16:28.898Z,0
2018-08-16T03:17:29.473Z,0
2018-08-16T03:18:30.047Z,0
2018-08-16T03:19:30.620Z,0
2018-08-16T03:20:31.194Z,0
2018-08-16T03:21:31.770Z,0
2018-08-16T03:22:32.352Z,0
2018-08-16T03:23:32.927Z,0
2018-08-16T03:24:33.500Z,0
2018-08-16T03:25:34.088Z,0
2018-08-16T03:26:34.663Z,0
2018-08-16T03:27:35.236Z,0
2018-08-16T03:28:35.812Z,0
2018-08-16T03:29:36.385Z,0
2018-08-16T03:30:36.959Z,0
2018-08-16T03:31:37.532Z,0
2018-08-16T03:32:38.103Z,0
2018-08-16T03:33:38.676Z,0
2018-08-16T03:34:39.250Z,0
2018-08-16T03:35:39.822Z,0
2018-08-16T03:36:40.395Z,0
2018-08-16T03:37:40.968Z,0
2018-08-16T03:38:41.543Z,0
2018-08-16T03:39:42.118Z,0
2018-08-16T03:40:42.694Z,0
2018-08-16T03:41:43.275Z,0
2018-08-16T03:42:43.847Z,0
2018-08-16T03:43:44.418Z,0
2018-08-16T03:44:44.992Z,0
2018-08-16T03:45:45.565Z,0
2018-08-16T03:46:46.142Z,0
2018-08-16T03:47:46.712Z,0
2018-08-16T03:48:47.287Z,0
2018-08-16T03:49:47.861Z,0
2018-08-16T03:50:48.437Z,0
2018-08-16T03:51:49.010Z,0
2018-08-16T03:52:49.585Z,0
2018-08-16T03:53:50.156Z,0
2018-08-16T03:54:50.730Z,0
2018-08-16T03:55:51.304Z,0
2018-08-16T03:56:51.876Z,0
2018-08-16T03:57:52.450Z,0
2018-08-16T03:58:53.021Z,0
2018-08-16T03:59:53.594Z,4
2018-08-16T04:00:54.168Z,4
2018-08-16T04:01:54.741Z,0
2018-08-16T04:02:55.315Z,0
2018-08-16T04:03:55.896Z,4
2018-08-16T04:04:56.465Z,4
2018-08-16T04:05:57.040Z,0
2018-08-16T04:06:57.625Z,4
2018-08-16T04:07:58.199Z,4
2018-08-16T04:08:58.776Z,4
2018-08-16T04:09:59.346Z,8
2018-08-16T04:10:59.920Z,4
2018-08-16T04:12:00.493Z,8
2018-08-16T04:13:01.069Z,8
2018-08-16T04:14:01.639Z,8
2018-08-16T04:15:02.212Z,8
2018-08-16T04:16:02.796Z,8
2018-08-16T04:17:03.371Z,8
2018-08-16T04:18:03.957Z,12
2018-08-16T04:19:04.529Z,16
2018-08-16T04:20:05.104Z,16
2018-08-16T04:21:05.680Z,16
2018-08-16T04:22:06.254Z,20
2018-08-16T04:23:06.830Z,16
2018-08-16T04:24:07.405Z,20
2018-08-16T04:25:07.979Z,24
2018-08-16T04:26:08.554Z,24
2018-08-16T04:27:09.138Z,24
2018-08-16T04:28:09.713Z,28
2018-08-16T04:29:10.329Z,28
2018-08-16T04:30:10.862Z,32
2018-08-16T04:31:11.437Z,32
2018-08-16T04:32:12.012Z,36
2018-08-16T04:33:12.590Z,36
2018-08-16T04:34:13.171Z,40
2018-08-16T04:35:13.787Z,40
2018-08-16T04:36:14.325Z,44
2018-08-16T04:37:14.909Z,44
2018-08-16T04:38:15.481Z,48
2018-08-16T04:39:16.058Z,52
2018-08-16T04:40:16.635Z,52
2018-08-16T04:41:17.210Z,56
2018-08-16T04:42:17.782Z,60
2018-08-16T04:43:18.361Z,60
2018-08-16T04:44:18.943Z,64
2018-08-16T04:45:19.516Z,64
2018-08-16T04:46:20.091Z,68
2018-08-16T04:47:20.666Z,72
2018-08-16T04:48:21.242Z,76
2018-08-16T04:49:21.813Z,76
2018-08-16T04:50:22.387Z,80
2018-08-16T04:51:22.964Z,80
2018-08-16T04:52:23.550Z,84
2018-08-16T04:53:24.122Z,88
2018-08-16T04:54:24.697Z,88
2018-08-16T04:55:25.271Z,92
2018-08-16T04:56:25.848Z,96
2018-08-16T04:57:26.422Z,96
2018-08-16T04:58:26.999Z,100
2018-08-16T04:59:27.574Z,104
2018-08-16T05:00:28.148Z,112
2018-08-16T05:01:28.734Z,112
2018-08-16T05:02:29.309Z,116
2018-08-16T05:03:29.883Z,120
2018-08-16T05:04:30.459Z,124
2018-08-16T05:05:31.034Z,128
2018-08-16T05:06:31.611Z,128
2018-08-16T05:07:32.185Z,128
2018-08-16T05:08:32.763Z,132
2018-08-16T05:09:33.349Z,136
2018-08-16T05:10:33.935Z,140
2018-08-16T05:11:34.519Z,144
2018-08-16T05:12:35.095Z,148
2018-08-16T05:13:35.670Z,148
2018-08-16T05:14:36.247Z,152
2018-08-16T05:15:36.832Z,152
2018-08-16T05:16:37.409Z,152
2018-08-16T05:17:37.986Z,156
2018-08-16T05:18:38.559Z,156
2018-08-16T05:19:39.143Z,160
2018-08-16T05:20:39.717Z,164
2018-08-16T05:21:40.306Z,164
2018-08-16T05:22:40.879Z,168
2018-08-16T05:23:41.454Z,168
2018-08-16T05:24:42.040Z,172
2018-08-16T05:25:42.617Z,176
2018-08-16T05:26:43.190Z,176
2018-08-16T05:27:43.763Z,180
2018-08-16T05:28:44.338Z,184
2018-08-16T05:29:44.923Z,184
2018-08-16T05:30:45.500Z,188
2018-08-16T05:31:46.147Z,188
2018-08-16T05:32:46.659Z,192
2018-08-16T05:33:47.236Z,192
2018-08-16T05:34:47.812Z,196
2018-08-16T05:35:48.389Z,200
2018-08-16T05:36:48.965Z,200
2018-08-16T05:37:49.544Z,208
2018-08-16T05:38:50.123Z,212
2018-08-16T05:39:50.706Z,216
2018-08-16T05:40:51.281Z,224
2018-08-16T05:41:51.858Z,224
2018-08-16T05:42:52.498Z,228
2018-08-16T05:43:53.013Z,232
2018-08-16T05:44:53.599Z,236
2018-08-16T05:45:54.176Z,228
2018-08-16T05:46:54.754Z,236
2018-08-16T05:47:55.341Z,236
2018-08-16T05:48:55.918Z,240
2018-08-16T05:49:56.495Z,236
2018-08-16T05:50:57.082Z,216
2018-08-16T05:51:57.649Z,204
2018-08-16T05:52:58.227Z,204
2018-08-16T05:53:58.803Z,204
2018-08-16T05:54:59.377Z,200
2018-08-16T05:55:59.965Z,200
2018-08-16T05:57:00.540Z,200
2018-08-16T05:58:01.120Z,200
2018-08-16T05:59:01.708Z,200
2018-08-16T06:00:02.278Z,204
2018-08-16T06:01:02.853Z,204
2018-08-16T06:02:03.429Z,204
2018-08-16T06:03:04.006Z,208
2018-08-16T06:04:04.583Z,208
2018-08-16T06:05:05.157Z,208
2018-08-16T06:06:05.734Z,208
2018-08-16T06:07:06.309Z,208
2018-08-16T06:08:06.886Z,208
2018-08-16T06:09:07.464Z,212
2018-08-16T06:10:08.039Z,212
2018-08-16T06:11:08.621Z,208
2018-08-16T06:12:09.193Z,208
2018-08-16T06:13:09.771Z,208
2018-08-16T06:14:10.350Z,208
2018-08-16T06:15:10.926Z,212
2018-08-16T06:16:11.502Z,208
2018-08-16T06:17:12.079Z,208
2018-08-16T06:18:12.655Z,212
2018-08-16T06:19:13.233Z,216
2018-08-16T06:20:13.811Z,216
2018-08-16T06:21:14.386Z,216
2018-08-16T06:22:14.972Z,224
2018-08-16T06:23:15.549Z,224
2018-08-16T06:24:16.125Z,224
2018-08-16T06:25:16.702Z,224
2018-08-16T06:26:17.283Z,224
2018-08-16T06:27:17.866Z,228
2018-08-16T06:28:18.447Z,228
2018-08-16T06:29:19.022Z,232
2018-08-16T06:30:19.599Z,236
2018-08-16T06:31:20.176Z,236
2018-08-16T06:32:20.762Z,236
2018-08-16T06:33:21.344Z,236
2018-08-16T06:34:21.930Z,236
2018-08-16T06:35:22.508Z,244
2018-08-16T06:36:23.084Z,248
2018-08-16T06:37:23.660Z,256
2018-08-16T06:38:24.236Z,260
2018-08-16T06:39:24.814Z,264
2018-08-16T06:40:25.390Z,268
2018-08-16T06:41:25.968Z,272
2018-08-16T06:42:26.548Z,280
2018-08-16T06:43:27.135Z,288
2018-08-16T06:44:27.712Z,292
2018-08-16T06:45:28.289Z,296
2018-08-16T06:46:28.877Z,296
2018-08-16T06:47:29.456Z,304
2018-08-16T06:48:30.031Z,304
2018-08-16T06:49:30.614Z,308
2018-08-16T06:50:31.197Z,308
2018-08-16T06:51:31.775Z,312
2018-08-16T06:52:32.417Z,316
2018-08-16T06:53:32.930Z,316
2018-08-16T06:54:33.510Z,320
2018-08-16T06:55:34.095Z,328
2018-08-16T06:56:34.676Z,332
2018-08-16T06:57:35.247Z,332
2018-08-16T06:58:35.837Z,336
2018-08-16T06:59:36.411Z,340
2018-08-16T07:00:36.999Z,332
2018-08-16T07:01:37.576Z,336
2018-08-16T07:02:38.153Z,332
2018-08-16T07:03:38.730Z,336
2018-08-16T07:04:39.310Z,336
2018-08-16T07:05:39.886Z,344
2018-08-16T07:06:40.464Z,340
2018-08-16T07:07:41.040Z,344
2018-08-16T07:08:41.617Z,348
2018-08-16T07:09:42.195Z,352
2018-08-16T07:10:42.773Z,356
2018-08-16T07:11:43.348Z,360
2018-08-16T07:12:43.926Z,364
2018-08-16T07:13:44.513Z,372
2018-08-16T07:14:45.101Z,380
2018-08-16T07:15:45.680Z,376
2018-08-16T07:16:46.268Z,376
2018-08-16T07:17:46.843Z,384
2018-08-16T07:18:47.492Z,388
2018-08-16T07:19:47.998Z,392
2018-08-16T07:20:48.576Z,400
2018-08-16T07:21:49.156Z,408
2018-08-16T07:22:49.732Z,416
2018-08-16T07:23:50.309Z,416
2018-08-16T07:24:50.901Z,412
2018-08-16T07:25:51.465Z,412
2018-08-16T07:26:52.043Z,416
2018-08-16T07:27:52.620Z,420
2018-08-16T07:28:53.196Z,420
2018-08-16T07:29:53.791Z,420
2018-08-16T07:30:54.353Z,424
2018-08-16T07:31:54.931Z,432
2018-08-16T07:32:55.508Z,440
2018-08-16T07:33:56.085Z,452
2018-08-16T07:34:56.668Z,460
2018-08-16T07:35:57.242Z,464
2018-08-16T07:36:57.822Z,460
2018-08-16T07:37:58.396Z,460
2018-08-16T07:38:58.975Z,464
2018-08-16T07:39:59.553Z,472
2018-08-16T07:41:00.132Z,472
2018-08-16T07:42:00.709Z,476
2018-08-16T07:43:01.286Z,480
2018-08-16T07:44:01.864Z,484
2018-08-16T07:45:02.444Z,488
2018-08-16T07:46:03.047Z,480
2018-08-16T07:47:03.612Z,488
2018-08-16T07:48:04.199Z,488
2018-08-16T07:49:04.779Z,492
2018-08-16T07:50:05.359Z,496
2018-08-16T07:51:06.001Z,500
2018-08-16T07:52:06.595Z,500
2018-08-16T07:53:07.089Z,504
2018-08-16T07:54:07.667Z,504
2018-08-16T07:55:08.246Z,500
2018-08-16T07:56:08.823Z,500
2018-08-16T07:57:09.403Z,496
2018-08-16T07:58:09.983Z,504
2018-08-16T07:59:10.570Z,504
2018-08-16T08:00:11.165Z,504
2018-08-16T08:01:11.739Z,496
2018-08-16T08:02:12.320Z,500
2018-08-16T08:03:12.901Z,508
2018-08-16T08:04:13.476Z,512
2018-08-16T08:05:14.054Z,512
2018-08-16T08:06:14.635Z,516
2018-08-16T08:07:15.212Z,524
2018-08-16T08:08:15.789Z,528
2018-08-16T08:09:16.436Z,524
2018-08-16T08:10:16.951Z,528
2018-08-16T08:11:17.526Z,524
2018-08-16T08:12:18.112Z,512
2018-08-16T08:13:18.693Z,508
2018-08-16T08:14:19.279Z,516
2018-08-16T08:15:19.868Z,516
2018-08-16T08:16:20.437Z,504
2018-08-16T08:17:21.014Z,500
2018-08-16T08:18:21.593Z,500
2018-08-16T08:19:22.172Z,488
2018-08-16T08:20:22.754Z,476
2018-08-16T08:21:23.330Z,472
2018-08-16T08:22:23.908Z,468
2018-08-16T08:23:24.488Z,568
2018-08-16T08:24:25.067Z,532
2018-08-16T08:25:25.681Z,504
2018-08-16T08:26:26.223Z,524
2018-08-16T08:27:26.801Z,548
2018-08-16T08:28:27.380Z,540
2018-08-16T08:29:27.957Z,512
2018-08-16T08:30:28.535Z,520
2018-08-16T08:31:29.163Z,504
2018-08-16T08:32:29.693Z,524
2018-08-16T08:33:30.274Z,596
2018-08-16T08:34:30.850Z,572
2018-08-16T08:35:31.429Z,568
2018-08-16T08:36:32.018Z,596
2018-08-16T08:37:32.596Z,620
2018-08-16T08:38:33.218Z,572
2018-08-16T08:39:33.754Z,648
2018-08-16T08:40:34.333Z,604
2018-08-16T08:41:34.911Z,616
2018-08-16T08:42:35.489Z,604
2018-08-16T08:43:36.067Z,620
2018-08-16T08:44:36.658Z,624
2018-08-16T08:45:37.248Z,624
2018-08-16T08:46:37.838Z,624
2018-08-16T08:47:38.415Z,628
2018-08-16T08:48:38.995Z,628
2018-08-16T08:49:39.572Z,628
2018-08-16T08:50:40.151Z,636
2018-08-16T08:51:40.731Z,644
2018-08-16T08:52:41.309Z,636
2018-08-16T08:53:41.889Z,656
2018-08-16T08:54:42.468Z,648
2018-08-16T08:55:43.048Z,620
2018-08-16T08:56:43.628Z,668
2018-08-16T08:57:44.206Z,708
2018-08-16T08:58:44.784Z,780
2018-08-16T08:59:45.369Z,808
2018-08-16T09:00:45.941Z,816
2018-08-16T09:01:46.531Z,792
2018-08-16T09:02:47.120Z,532
2018-08-16T09:03:47.699Z,664
2018-08-16T09:04:48.279Z,780
2018-08-16T09:05:48.860Z,816
2018-08-16T09:06:49.492Z,788
2018-08-16T09:07:50.029Z,548
2018-08-16T09:08:50.611Z,764
2018-08-16T09:09:51.190Z,744
2018-08-16T09:10:51.769Z,696
2018-08-16T09:11:52.350Z,728
2018-08-16T09:12:52.929Z,732
2018-08-16T09:13:53.513Z,736
2018-08-16T09:14:54.252Z,792
2018-08-16T09:15:54.671Z,744
2018-08-16T09:16:55.251Z,764
2018-08-16T09:17:55.831Z,804
2018-08-16T09:18:56.408Z,796
2018-08-16T09:19:56.998Z,888
2018-08-16T09:20:57.576Z,884
2018-08-16T09:21:58.166Z,844
2018-08-16T09:22:58.745Z,832
2018-08-16T09:23:59.363Z,844
2018-08-16T09:24:59.903Z,816
2018-08-16T09:26:00.493Z,772
2018-08-16T09:27:01.076Z,756
2018-08-16T09:28:01.663Z,752
2018-08-16T09:29:02.242Z,748
2018-08-16T09:30:02.824Z,744
2018-08-16T09:31:03.411Z,724
2018-08-16T09:32:03.981Z,740
2018-08-16T09:33:04.560Z,752
2018-08-16T09:34:05.140Z,720
2018-08-16T09:35:05.721Z,684
2018-08-16T09:36:06.300Z,636
2018-08-16T09:37:06.879Z,624
2018-08-16T09:38:07.457Z,652
2018-08-16T09:39:08.037Z,644
2018-08-16T09:40:08.618Z,648
2018-08-16T09:41:09.196Z,692
2018-08-16T09:42:09.776Z,692
2018-08-16T09:43:10.354Z,676
2018-08-16T09:44:10.936Z,556
2018-08-16T09:45:11.546Z,588
2018-08-16T09:46:12.115Z,508
2018-08-16T09:47:12.710Z,456
2018-08-16T09:48:13.286Z,696
2018-08-16T09:49:13.874Z,520
2018-08-16T09:50:14.455Z,708
2018-08-16T09:51:15.044Z,680
2018-08-16T09:52:15.626Z,696
2018-08-16T09:53:16.206Z,484
2018-08-16T09:54:16.784Z,588
2018-08-16T09:55:17.373Z,740
2018-08-16T09:56:17.952Z,748
2018-08-16T09:57:18.532Z,708
2018-08-16T09:58:19.112Z,708
2018-08-16T09:59:19.693Z,720
2018-08-16T10:00:20.286Z,484
2018-08-16T10:01:20.864Z,776
2018-08-16T10:02:21.454Z,740
2018-08-16T10:03:22.035Z,512
2018-08-16T10:04:22.615Z,532
2018-08-16T10:05:23.197Z,512
2018-08-16T10:06:23.775Z,780
2018-08-16T10:07:24.355Z,752
2018-08-16T10:08:24.933Z,728
2018-08-16T10:09:25.539Z,704
2018-08-16T10:10:26.104Z,704
2018-08-16T10:11:26.683Z,688
2018-08-16T10:12:27.264Z,688
2018-08-16T10:13:27.889Z,688
2018-08-16T10:14:28.432Z,708
2018-08-16T10:15:29.011Z,716
2018-08-16T10:16:29.591Z,712
2018-08-16T10:17:30.171Z,724
2018-08-16T10:18:30.750Z,740
2018-08-16T10:19:31.330Z,744
2018-08-16T10:20:31.911Z,720
2018-08-16T10:21:32.491Z,728
2018-08-16T10:22:33.070Z,740
2018-08-16T10:23:33.649Z,712
2018-08-16T10:24:34.229Z,708
2018-08-16T10:25:34.810Z,732
2018-08-16T10:26:35.390Z,736
2018-08-16T10:27:35.969Z,744
2018-08-16T10:28:36.565Z,760
2018-08-16T10:29:37.140Z,740
2018-08-16T10:30:37.719Z,744
2018-08-16T10:31:38.299Z,756
2018-08-16T10:32:38.883Z,736
2018-08-16T10:33:39.475Z,736
2018-08-16T10:34:40.059Z,752
2018-08-16T10:35:40.638Z,728
2018-08-16T10:36:41.218Z,728
2018-08-16T10:37:41.799Z,748
2018-08-16T10:38:42.380Z,736
2018-08-16T10:39:42.958Z,728
2018-08-16T10:40:43.537Z,756
2018-08-16T10:41:44.120Z,792
2018-08-16T10:42:44.698Z,784
2018-08-16T10:43:45.278Z,768
2018-08-16T10:44:45.858Z,720
2018-08-16T10:45:46.436Z,784
2018-08-16T10:46:47.017Z,792
2018-08-16T10:47:47.607Z,768
2018-08-16T10:48:48.186Z,748
2018-08-16T10:49:48.766Z,768
2018-08-16T10:50:49.354Z,776
2018-08-16T10:51:49.937Z,760
2018-08-16T10:52:50.522Z,744
2018-08-16T10:53:51.097Z,764
2018-08-16T10:54:51.677Z,748
2018-08-16T10:55:52.261Z,752
2018-08-16T10:56:52.847Z,788
2018-08-16T10:57:53.427Z,772
2018-08-16T10:58:54.020Z,776
2018-08-16T10:59:54.599Z,756
2018-08-16T11:00:55.180Z,768
2018-08-16T11:01:55.760Z,772
2018-08-16T11:02:56.344Z,768
2018-08-16T11:03:56.932Z,804
2018-08-16T11:04:57.512Z,816
2018-08-16T11:05:58.093Z,804
2018-08-16T11:06:58.672Z,788
2018-08-16T11:07:59.255Z,768
2018-08-16T11:08:59.836Z,732
2018-08-16T11:10:00.426Z,760
2018-08-16T11:11:01.007Z,772
2018-08-16T11:12:01.588Z,784
2018-08-16T11:13:02.188Z,760
2018-08-16T11:14:02.769Z,800
2018-08-16T11:15:03.358Z,764
2018-08-16T11:16:03.949Z,792
2018-08-16T11:17:04.532Z,792
2018-08-16T11:18:05.123Z,808
2018-08-16T11:19:05.702Z,816
2018-08-16T11:20:06.294Z,812
2018-08-16T11:21:06.876Z,804
2018-08-16T11:22:07.468Z,792
2018-08-16T11:23:08.057Z,796
2018-08-16T11:24:08.639Z,804
2018-08-16T11:25:09.221Z,812
2018-08-16T11:26:09.801Z,828
2018-08-16T11:27:10.380Z,840
2018-08-16T11:28:10.960Z,832
2018-08-16T11:29:11.559Z,828
2018-08-16T11:30:12.134Z,844
2018-08-16T11:31:12.725Z,832
2018-08-16T11:32:13.305Z,752
2018-08-16T11:33:13.897Z,844
2018-08-16T11:34:14.478Z,864
2018-08-16T11:35:15.063Z,856
2018-08-16T11:36:15.643Z,852
2018-08-16T11:37:16.221Z,856
2018-08-16T11:38:16.800Z,840
2018-08-16T11:39:17.382Z,836
2018-08-16T11:40:17.963Z,820
2018-08-16T11:41:18.542Z,824
2018-08-16T11:42:19.123Z,832
2018-08-16T11:43:19.715Z,832
2018-08-16T11:44:20.295Z,848
2018-08-16T11:45:20.874Z,848
2018-08-16T11:46:21.454Z,820
2018-08-16T11:47:22.036Z,836
2018-08-16T11:48:22.664Z,852
2018-08-16T11:49:23.199Z,876
2018-08-16T11:50:23.780Z,876
2018-08-16T11:51:24.369Z,848
2018-08-16T11:52:24.961Z,776
2018-08-16T11:53:25.541Z,820
2018-08-16T11:54:26.122Z,876
2018-08-16T11:55:26.702Z,920
2018-08-16T11:56:27.284Z,904
2018-08-16T11:57:27.865Z,900
2018-08-16T11:58:28.485Z,864
2018-08-16T11:59:29.027Z,920
2018-08-16T12:02:08.932Z,864
2018-08-16T12:03:09.441Z,864
2018-08-16T12:04:10.020Z,856
2018-08-16T12:05:10.600Z,836
2018-08-16T12:06:11.218Z,896
2018-08-16T12:07:11.761Z,892
2018-08-16T12:08:12.342Z,884
2018-08-16T12:09:12.923Z,908
2018-08-16T12:10:13.504Z,908
2018-08-16T12:11:14.087Z,892
2018-08-16T12:12:14.668Z,896
2018-08-16T12:13:15.250Z,924
2018-08-16T12:14:15.830Z,876
2018-08-16T12:15:16.495Z,856
2018-08-16T12:16:16.993Z,860
2018-08-16T12:17:17.573Z,852
2018-08-16T12:18:18.155Z,856
2018-08-16T12:19:18.747Z,824
2018-08-16T12:20:19.328Z,844
2018-08-16T12:21:19.909Z,892
2018-08-16T12:22:20.490Z,872
2018-08-16T12:23:21.072Z,900
2018-08-16T12:24:21.654Z,920
2018-08-16T12:25:22.244Z,924
2018-08-16T12:26:22.831Z,936
2018-08-16T12:27:23.406Z,940
2018-08-16T12:28:23.987Z,912
2018-08-16T12:29:24.570Z,936
2018-08-16T12:30:25.152Z,924
2018-08-16T12:31:25.733Z,924
2018-08-16T12:32:26.314Z,924
2018-08-16T12:33:26.896Z,916
2018-08-16T12:34:27.475Z,900
2018-08-16T12:35:28.058Z,916
2018-08-16T12:36:28.638Z,880
2018-08-16T12:37:29.219Z,852
2018-08-16T12:38:29.802Z,852
2018-08-16T12:39:30.383Z,916
2018-08-16T12:40:31.085Z,940
2018-08-16T12:41:31.645Z,936
2018-08-16T12:42:32.226Z,912
2018-08-16T12:43:32.812Z,904
2018-08-16T12:44:33.392Z,912
2018-08-16T12:45:33.971Z,936
2018-08-16T12:46:34.553Z,984
2018-08-16T12:47:35.156Z,1024
2018-08-16T12:48:35.722Z,1016
2018-08-16T12:49:36.312Z,1008
2018-08-16T12:50:36.896Z,1016
2018-08-16T12:51:37.479Z,1008
2018-08-16T12:52:38.059Z,1036
2018-08-16T12:53:38.675Z,1024
2018-08-16T12:54:39.243Z,1040
2018-08-16T12:55:39.824Z,1036
2018-08-16T12:56:40.405Z,1044
2018-08-16T12:57:40.993Z,1040
2018-08-16T12:58:41.570Z,1032
2018-08-16T12:59:42.157Z,1040
2018-08-16T13:00:42.734Z,1024
2018-08-16T13:01:43.338Z,1040
2018-08-16T13:02:43.899Z,1040
2018-08-16T13:03:44.480Z,1016
2018-08-16T13:04:45.062Z,1044
2018-08-16T13:05:45.646Z,1060
2018-08-16T13:06:46.231Z,1068
2018-08-16T13:07:46.821Z,1076
2018-08-16T13:08:47.487Z,1100
2018-08-16T13:09:47.998Z,1104
2018-08-16T13:10:48.580Z,1060
2018-08-16T13:11:49.164Z,1008
2018-08-16T13:12:49.747Z,1040
2018-08-16T13:13:50.341Z,1044
2018-08-16T13:14:50.976Z,1040
2018-08-16T13:15:51.505Z,1104
2018-08-16T13:16:52.096Z,1100
2018-08-16T13:17:52.678Z,1124
2018-08-16T13:18:53.271Z,1192
2018-08-16T13:19:53.854Z,1224
2018-08-16T13:20:54.435Z,1188
2018-08-16T13:21:55.021Z,1176
2018-08-16T13:22:55.601Z,1168
2018-08-16T13:23:56.183Z,1148
2018-08-16T13:24:56.766Z,1144
2018-08-16T13:25:57.349Z,1132
2018-08-16T13:26:57.932Z,1116
2018-08-16T13:27:58.514Z,1124
2018-08-16T13:28:59.097Z,1088
2018-08-16T13:29:59.731Z,1056
2018-08-16T13:31:00.261Z,1088
2018-08-16T13:32:00.843Z,1112
2018-08-16T13:33:01.426Z,1120
2018-08-16T13:34:02.009Z,1128
2018-08-16T13:35:02.590Z,1112
2018-08-16T13:36:03.172Z,1160
2018-08-16T13:37:03.771Z,1192
2018-08-16T13:38:04.343Z,1216
2018-08-16T13:39:04.925Z,1212
2018-08-16T13:40:05.509Z,1180
2018-08-16T13:41:06.091Z,1176
2018-08-16T13:42:06.673Z,1184
2018-08-16T13:43:07.258Z,1172
2018-08-16T13:44:07.838Z,1128
2018-08-16T13:45:08.420Z,1148
2018-08-16T13:46:09.002Z,1144
2018-08-16T13:47:09.585Z,1176
2018-08-16T13:48:10.169Z,1204
2018-08-16T13:49:10.751Z,1216
2018-08-16T13:50:11.333Z,1208
2018-08-16T13:51:11.916Z,1244
2018-08-16T13:52:12.500Z,1224
2018-08-16T13:53:13.086Z,1212
2018-08-16T13:54:13.667Z,1220
2018-08-16T13:55:14.249Z,1208
2018-08-16T13:56:14.831Z,1232
2018-08-16T13:57:15.415Z,1296
2018-08-16T13:58:16.005Z,1320
2018-08-16T13:59:16.588Z,1284
2018-08-16T14:00:17.172Z,1340
2018-08-16T14:01:17.753Z,1340
2018-08-16T14:02:18.335Z,1356
2018-08-16T14:03:18.918Z,1364
2018-08-16T14:04:19.500Z,1332
2018-08-16T14:05:20.084Z,1332
2018-08-16T14:06:20.667Z,1336
2018-08-16T14:07:21.259Z,1344
2018-08-16T14:08:21.855Z,1348
2018-08-16T14:09:22.434Z,1328
2018-08-16T14:10:23.018Z,1340
2018-08-16T14:11:23.599Z,1320
2018-08-16T14:12:24.192Z,1316